sensor_id;sensor_type;location;lat;lon;timestamp;P1;durP1;ratioP1;P2;durP2;ratioP2
52210;SDS011;38179;52.756;6.906;2023-05-20T00:00:53;16.42;;;14.65;;
52210;SDS011;38179;52.756;6.906;2023-05-20T00:03:18;17.23;;;14.10;;
52210;SDS011;38179;52.756;6.906;2023-05-20T00:05:45;16.35;;;14.75;;
52210;SDS011;38179;52.756;6.906;2023-05-20T00:08:11;20.02;;;15.25;;
52210;SDS011;38179;52.756;6.906;2023-05-20T00:10:37;16.40;;;14.80;;
52210;SDS011;38179;52.756;6.906;2023-05-20T00:13:03;16.02;;;14.45;;
52210;SDS011;38179;52.756;6.906;2023-05-20T00:15:30;16.35;;;14.75;;
52210;SDS011;38179;52.756;6.906;2023-05-20T00:17:57;16.73;;;14.90;;
52210;SDS011;38179;52.756;6.906;2023-05-20T00:20:24;17.02;;;13.85;;
52210;SDS011;38179;52.756;6.906;2023-05-20T00:22:50;16.00;;;14.50;;
52210;SDS011;38179;52.756;6.906;2023-05-20T00:25:16;16.08;;;14.57;;
52210;SDS011;38179;52.756;6.906;2023-05-20T00:27:42;16.40;;;14.80;;
52210;SDS011;38179;52.756;6.906;2023-05-20T00:30:08;18.65;;;14.63;;
52210;SDS011;38179;52.756;6.906;2023-05-20T00:32:35;17.23;;;14.68;;
52210;SDS011;38179;52.756;6.906;2023-05-20T00:35:01;16.27;;;14.70;;
52210;SDS011;38179;52.756;6.906;2023-05-20T00:37:27;16.30;;;14.55;;
52210;SDS011;38179;52.756;6.906;2023-05-20T00:39:53;17.15;;;14.40;;
52210;SDS011;38179;52.756;6.906;2023-05-20T00:42:23;16.13;;;14.52;;
52210;SDS011;38179;52.756;6.906;2023-05-20T00:44:50;17.80;;;14.75;;
52210;SDS011;38179;52.756;6.906;2023-05-20T00:47:17;16.55;;;14.32;;
52210;SDS011;38179;52.756;6.906;2023-05-20T00:49:45;16.92;;;14.48;;
52210;SDS011;38179;52.756;6.906;2023-05-20T00:52:13;15.77;;;14.05;;
52210;SDS011;38179;52.756;6.906;2023-05-20T00:54:39;15.63;;;14.05;;
52210;SDS011;38179;52.756;6.906;2023-05-20T00:57:06;15.57;;;13.80;;
52210;SDS011;38179;52.756;6.906;2023-05-20T00:59:33;16.90;;;15.25;;
52210;SDS011;38179;52.756;6.906;2023-05-20T01:02:01;19.75;;;15.00;;
52210;SDS011;38179;52.756;6.906;2023-05-20T01:04:30;17.15;;;13.93;;
52210;SDS011;38179;52.756;6.906;2023-05-20T01:07:01;15.43;;;14.02;;
52210;SDS011;38179;52.756;6.906;2023-05-20T01:09:30;17.23;;;14.95;;
52210;SDS011;38179;52.756;6.906;2023-05-20T01:14:48;15.82;;;14.23;;
52210;SDS011;38179;52.756;6.906;2023-05-20T01:17:20;16.20;;;13.50;;
52210;SDS011;38179;52.756;6.906;2023-05-20T01:19:51;15.93;;;14.40;;
52210;SDS011;38179;52.756;6.906;2023-05-20T01:22:23;15.27;;;13.97;;
52210;SDS011;38179;52.756;6.906;2023-05-20T01:24:53;15.40;;;13.55;;
52210;SDS011;38179;52.756;6.906;2023-05-20T01:27:20;16.20;;;14.75;;
52210;SDS011;38179;52.756;6.906;2023-05-20T01:29:50;18.02;;;14.52;;
52210;SDS011;38179;52.756;6.906;2023-05-20T01:32:23;17.83;;;14.15;;
52210;SDS011;38179;52.756;6.906;2023-05-20T01:34:52;15.05;;;13.65;;
52210;SDS011;38179;52.756;6.906;2023-05-20T01:37:20;15.75;;;14.07;;
52210;SDS011;38179;52.756;6.906;2023-05-20T01:39:48;15.48;;;13.88;;
52210;SDS011;38179;52.756;6.906;2023-05-20T01:42:15;15.98;;;14.35;;
52210;SDS011;38179;52.756;6.906;2023-05-20T01:44:42;17.50;;;14.13;;
52210;SDS011;38179;52.756;6.906;2023-05-20T01:47:08;17.02;;;14.43;;
52210;SDS011;38179;52.756;6.906;2023-05-20T01:49:33;15.10;;;13.63;;
52210;SDS011;38179;52.756;6.906;2023-05-20T01:51:59;16.40;;;14.40;;
52210;SDS011;38179;52.756;6.906;2023-05-20T01:54:25;18.35;;;14.80;;
52210;SDS011;38179;52.756;6.906;2023-05-20T01:56:51;15.73;;;13.75;;
52210;SDS011;38179;52.756;6.906;2023-05-20T01:59:17;16.55;;;14.55;;
52210;SDS011;38179;52.756;6.906;2023-05-20T02:01:43;16.30;;;14.60;;
52210;SDS011;38179;52.756;6.906;2023-05-20T02:04:10;15.43;;;13.90;;
52210;SDS011;38179;52.756;6.906;2023-05-20T02:06:36;15.70;;;14.00;;
52210;SDS011;38179;52.756;6.906;2023-05-20T02:09:01;16.65;;;14.77;;
52210;SDS011;38179;52.756;6.906;2023-05-20T02:11:27;15.48;;;13.88;;
52210;SDS011;38179;52.756;6.906;2023-05-20T02:13:53;15.13;;;13.50;;
52210;SDS011;38179;52.756;6.906;2023-05-20T02:16:19;15.88;;;14.20;;
52210;SDS011;38179;52.756;6.906;2023-05-20T02:18:45;15.10;;;13.52;;
52210;SDS011;38179;52.756;6.906;2023-05-20T02:21:11;15.10;;;13.60;;
52210;SDS011;38179;52.756;6.906;2023-05-20T02:23:37;16.80;;;13.50;;
52210;SDS011;38179;52.756;6.906;2023-05-20T02:26:02;15.95;;;14.45;;
52210;SDS011;38179;52.756;6.906;2023-05-20T02:28:28;16.15;;;14.32;;
52210;SDS011;38179;52.756;6.906;2023-05-20T02:30:54;14.68;;;13.40;;
52210;SDS011;38179;52.756;6.906;2023-05-20T02:33:20;15.20;;;13.73;;
52210;SDS011;38179;52.756;6.906;2023-05-20T02:35:46;15.52;;;13.82;;
52210;SDS011;38179;52.756;6.906;2023-05-20T02:38:12;14.98;;;13.40;;
52210;SDS011;38179;52.756;6.906;2023-05-20T02:40:38;15.25;;;13.48;;
52210;SDS011;38179;52.756;6.906;2023-05-20T02:43:04;14.93;;;13.52;;
52210;SDS011;38179;52.756;6.906;2023-05-20T02:45:30;15.05;;;13.55;;
52210;SDS011;38179;52.756;6.906;2023-05-20T02:47:56;14.38;;;12.98;;
52210;SDS011;38179;52.756;6.906;2023-05-20T02:50:21;15.52;;;13.93;;
52210;SDS011;38179;52.756;6.906;2023-05-20T02:52:47;15.30;;;13.25;;
52210;SDS011;38179;52.756;6.906;2023-05-20T02:55:14;14.50;;;13.20;;
52210;SDS011;38179;52.756;6.906;2023-05-20T02:57:40;19.67;;;14.43;;
52210;SDS011;38179;52.756;6.906;2023-05-20T03:00:06;15.57;;;13.80;;
52210;SDS011;38179;52.756;6.906;2023-05-20T03:02:37;15.75;;;13.00;;
52210;SDS011;38179;52.756;6.906;2023-05-20T03:05:03;15.00;;;13.50;;
52210;SDS011;38179;52.756;6.906;2023-05-20T03:07:29;13.27;;;12.18;;
52210;SDS011;38179;52.756;6.906;2023-05-20T03:09:58;14.63;;;13.18;;
52210;SDS011;38179;52.756;6.906;2023-05-20T03:12:24;14.65;;;13.35;;
52210;SDS011;38179;52.756;6.906;2023-05-20T03:14:50;15.02;;;13.48;;
52210;SDS011;38179;52.756;6.906;2023-05-20T03:17:20;15.00;;;13.38;;
52210;SDS011;38179;52.756;6.906;2023-05-20T03:19:46;15.25;;;13.73;;
52210;SDS011;38179;52.756;6.906;2023-05-20T03:22:12;14.70;;;13.13;;
52210;SDS011;38179;52.756;6.906;2023-05-20T03:24:38;15.07;;;13.50;;
52210;SDS011;38179;52.756;6.906;2023-05-20T03:27:05;14.75;;;13.45;;
52210;SDS011;38179;52.756;6.906;2023-05-20T03:29:31;14.60;;;13.20;;
52210;SDS011;38179;52.756;6.906;2023-05-20T03:31:57;14.93;;;13.52;;
52210;SDS011;38179;52.756;6.906;2023-05-20T03:34:23;15.52;;;13.95;;
52210;SDS011;38179;52.756;6.906;2023-05-20T03:36:52;16.05;;;14.35;;
52210;SDS011;38179;52.756;6.906;2023-05-20T03:39:18;14.35;;;12.95;;
52210;SDS011;38179;52.756;6.906;2023-05-20T03:41:44;14.80;;;13.07;;
52210;SDS011;38179;52.756;6.906;2023-05-20T03:44:09;14.82;;;13.13;;
52210;SDS011;38179;52.756;6.906;2023-05-20T03:46:35;15.38;;;12.85;;
52210;SDS011;38179;52.756;6.906;2023-05-20T03:49:01;14.13;;;12.93;;
52210;SDS011;38179;52.756;6.906;2023-05-20T03:51:28;14.57;;;13.05;;
52210;SDS011;38179;52.756;6.906;2023-05-20T03:53:54;14.52;;;13.02;;
52210;SDS011;38179;52.756;6.906;2023-05-20T03:56:19;15.00;;;13.70;;
52210;SDS011;38179;52.756;6.906;2023-05-20T03:58:46;16.95;;;12.57;;
52210;SDS011;38179;52.756;6.906;2023-05-20T04:01:12;14.55;;;12.95;;
52210;SDS011;38179;52.756;6.906;2023-05-20T04:03:39;13.60;;;12.32;;
52210;SDS011;38179;52.756;6.906;2023-05-20T04:06:06;13.98;;;12.20;;
52210;SDS011;38179;52.756;6.906;2023-05-20T04:08:32;14.98;;;13.15;;
52210;SDS011;38179;52.756;6.906;2023-05-20T04:11:00;14.43;;;13.07;;
52210;SDS011;38179;52.756;6.906;2023-05-20T04:13:27;13.65;;;12.45;;
52210;SDS011;38179;52.756;6.906;2023-05-20T04:15:53;14.43;;;12.73;;
52210;SDS011;38179;52.756;6.906;2023-05-20T04:18:19;14.45;;;12.93;;
52210;SDS011;38179;52.756;6.906;2023-05-20T04:20:45;13.93;;;12.57;;
52210;SDS011;38179;52.756;6.906;2023-05-20T04:23:11;13.80;;;12.48;;
52210;SDS011;38179;52.756;6.906;2023-05-20T04:25:37;13.65;;;12.32;;
52210;SDS011;38179;52.756;6.906;2023-05-20T04:28:05;13.35;;;12.15;;
52210;SDS011;38179;52.756;6.906;2023-05-20T04:30:31;13.70;;;12.32;;
52210;SDS011;38179;52.756;6.906;2023-05-20T04:32:57;13.80;;;12.50;;
52210;SDS011;38179;52.756;6.906;2023-05-20T04:37:53;18.17;;;12.75;;
52210;SDS011;38179;52.756;6.906;2023-05-20T04:40:20;12.55;;;11.40;;
52210;SDS011;38179;52.756;6.906;2023-05-20T04:42:47;13.23;;;11.75;;
52210;SDS011;38179;52.756;6.906;2023-05-20T04:45:13;12.93;;;11.73;;
52210;SDS011;38179;52.756;6.906;2023-05-20T04:47:39;12.88;;;11.68;;
52210;SDS011;38179;52.756;6.906;2023-05-20T04:50:06;13.35;;;12.15;;
52210;SDS011;38179;52.756;6.906;2023-05-20T04:52:37;13.05;;;11.95;;
52210;SDS011;38179;52.756;6.906;2023-05-20T04:55:05;13.48;;;12.35;;
52210;SDS011;38179;52.756;6.906;2023-05-20T04:57:33;13.30;;;12.10;;
52210;SDS011;38179;52.756;6.906;2023-05-20T05:00:00;13.15;;;11.95;;
52210;SDS011;38179;52.756;6.906;2023-05-20T05:02:26;13.10;;;11.90;;
52210;SDS011;38179;52.756;6.906;2023-05-20T05:04:52;12.82;;;11.73;;
52210;SDS011;38179;52.756;6.906;2023-05-20T05:07:18;13.18;;;11.95;;
52210;SDS011;38179;52.756;6.906;2023-05-20T05:09:44;13.20;;;11.98;;
52210;SDS011;38179;52.756;6.906;2023-05-20T05:12:10;13.27;;;11.98;;
52210;SDS011;38179;52.756;6.906;2023-05-20T05:14:36;12.45;;;11.35;;
52210;SDS011;38179;52.756;6.906;2023-05-20T05:17:02;14.18;;;12.70;;
52210;SDS011;38179;52.756;6.906;2023-05-20T05:19:28;13.15;;;11.90;;
52210;SDS011;38179;52.756;6.906;2023-05-20T05:21:54;13.18;;;11.98;;
52210;SDS011;38179;52.756;6.906;2023-05-20T05:24:20;13.68;;;12.13;;
52210;SDS011;38179;52.756;6.906;2023-05-20T05:26:46;12.60;;;11.40;;
52210;SDS011;38179;52.756;6.906;2023-05-20T05:29:11;13.00;;;11.77;;
52210;SDS011;38179;52.756;6.906;2023-05-20T05:31:37;13.38;;;12.18;;
52210;SDS011;38179;52.756;6.906;2023-05-20T05:34:04;12.95;;;11.80;;
52210;SDS011;38179;52.756;6.906;2023-05-20T05:36:31;12.65;;;11.48;;
52210;SDS011;38179;52.756;6.906;2023-05-20T05:38:58;12.85;;;11.65;;
52210;SDS011;38179;52.756;6.906;2023-05-20T05:41:23;12.93;;;11.82;;
52210;SDS011;38179;52.756;6.906;2023-05-20T05:43:50;12.95;;;11.85;;
52210;SDS011;38179;52.756;6.906;2023-05-20T05:46:16;13.32;;;12.15;;
52210;SDS011;38179;52.756;6.906;2023-05-20T05:48:42;13.45;;;12.25;;
52210;SDS011;38179;52.756;6.906;2023-05-20T05:51:13;13.63;;;12.38;;
52210;SDS011;38179;52.756;6.906;2023-05-20T05:53:39;13.50;;;12.35;;
52210;SDS011;38179;52.756;6.906;2023-05-20T05:56:05;13.50;;;12.30;;
52210;SDS011;38179;52.756;6.906;2023-05-20T05:58:31;13.38;;;12.05;;
52210;SDS011;38179;52.756;6.906;2023-05-20T06:00:57;12.50;;;11.30;;
52210;SDS011;38179;52.756;6.906;2023-05-20T06:03:23;12.63;;;11.52;;
52210;SDS011;38179;52.756;6.906;2023-05-20T06:05:49;13.20;;;11.90;;
52210;SDS011;38179;52.756;6.906;2023-05-20T06:08:15;13.10;;;11.80;;
52210;SDS011;38179;52.756;6.906;2023-05-20T06:10:41;12.68;;;11.57;;
52210;SDS011;38179;52.756;6.906;2023-05-20T06:13:11;12.82;;;11.75;;
52210;SDS011;38179;52.756;6.906;2023-05-20T06:15:38;12.70;;;11.52;;
52210;SDS011;38179;52.756;6.906;2023-05-20T06:18:04;12.45;;;11.45;;
52210;SDS011;38179;52.756;6.906;2023-05-20T06:20:30;13.18;;;11.88;;
52210;SDS011;38179;52.756;6.906;2023-05-20T06:22:56;13.18;;;11.98;;
52210;SDS011;38179;52.756;6.906;2023-05-20T06:25:22;12.85;;;11.75;;
52210;SDS011;38179;52.756;6.906;2023-05-20T06:27:49;13.07;;;11.75;;
52210;SDS011;38179;52.756;6.906;2023-05-20T06:30:15;12.98;;;11.88;;
52210;SDS011;38179;52.756;6.906;2023-05-20T06:32:41;13.75;;;12.40;;
52210;SDS011;38179;52.756;6.906;2023-05-20T06:35:07;13.07;;;11.88;;
52210;SDS011;38179;52.756;6.906;2023-05-20T06:37:34;13.50;;;12.40;;
52210;SDS011;38179;52.756;6.906;2023-05-20T06:40:00;12.52;;;11.52;;
52210;SDS011;38179;52.756;6.906;2023-05-20T06:42:26;13.13;;;12.05;;
52210;SDS011;38179;52.756;6.906;2023-05-20T06:44:56;13.07;;;11.85;;
52210;SDS011;38179;52.756;6.906;2023-05-20T06:47:22;13.60;;;12.20;;
52210;SDS011;38179;52.756;6.906;2023-05-20T06:49:48;12.77;;;11.68;;
52210;SDS011;38179;52.756;6.906;2023-05-20T06:52:14;13.43;;;12.15;;
52210;SDS011;38179;52.756;6.906;2023-05-20T06:54:40;13.40;;;12.05;;
52210;SDS011;38179;52.756;6.906;2023-05-20T06:57:06;13.70;;;12.25;;
52210;SDS011;38179;52.756;6.906;2023-05-20T06:59:33;13.18;;;12.07;;
52210;SDS011;38179;52.756;6.906;2023-05-20T07:02:00;14.23;;;12.88;;
52210;SDS011;38179;52.756;6.906;2023-05-20T07:04:26;13.98;;;12.57;;
52210;SDS011;38179;52.756;6.906;2023-05-20T07:06:52;13.50;;;12.20;;
52210;SDS011;38179;52.756;6.906;2023-05-20T07:09:18;13.75;;;12.55;;
52210;SDS011;38179;52.756;6.906;2023-05-20T07:11:44;13.75;;;12.55;;
52210;SDS011;38179;52.756;6.906;2023-05-20T07:14:10;13.95;;;12.57;;
52210;SDS011;38179;52.756;6.906;2023-05-20T07:16:36;13.45;;;12.27;;
52210;SDS011;38179;52.756;6.906;2023-05-20T07:19:02;14.48;;;13.07;;
52210;SDS011;38179;52.756;6.906;2023-05-20T07:21:32;14.27;;;13.00;;
52210;SDS011;38179;52.756;6.906;2023-05-20T07:24:13;13.82;;;12.63;;
52210;SDS011;38179;52.756;6.906;2023-05-20T07:26:39;14.32;;;12.90;;
52210;SDS011;38179;52.756;6.906;2023-05-20T07:29:05;13.90;;;12.70;;
52210;SDS011;38179;52.756;6.906;2023-05-20T07:31:31;14.18;;;12.68;;
52210;SDS011;38179;52.756;6.906;2023-05-20T07:33:57;13.70;;;12.48;;
52210;SDS011;38179;52.756;6.906;2023-05-20T07:36:25;14.52;;;13.02;;
52210;SDS011;38179;52.756;6.906;2023-05-20T07:38:51;14.05;;;12.85;;
52210;SDS011;38179;52.756;6.906;2023-05-20T07:41:17;14.48;;;13.18;;
52210;SDS011;38179;52.756;6.906;2023-05-20T07:43:43;14.40;;;13.02;;
52210;SDS011;38179;52.756;6.906;2023-05-20T07:46:09;15.07;;;13.65;;
52210;SDS011;38179;52.756;6.906;2023-05-20T07:48:35;14.52;;;13.43;;
52210;SDS011;38179;52.756;6.906;2023-05-20T07:51:01;15.00;;;13.70;;
52210;SDS011;38179;52.756;6.906;2023-05-20T07:53:34;14.43;;;13.23;;
52210;SDS011;38179;52.756;6.906;2023-05-20T07:56:02;14.98;;;13.55;;
52210;SDS011;38179;52.756;6.906;2023-05-20T07:58:28;14.93;;;13.63;;
52210;SDS011;38179;52.756;6.906;2023-05-20T08:00:55;15.07;;;13.75;;
52210;SDS011;38179;52.756;6.906;2023-05-20T08:03:21;14.60;;;13.40;;
52210;SDS011;38179;52.756;6.906;2023-05-20T08:05:48;14.90;;;13.70;;
52210;SDS011;38179;52.756;6.906;2023-05-20T08:08:14;14.95;;;13.75;;
52210;SDS011;38179;52.756;6.906;2023-05-20T08:10:41;15.50;;;14.10;;
52210;SDS011;38179;52.756;6.906;2023-05-20T08:13:07;15.32;;;14.02;;
52210;SDS011;38179;52.756;6.906;2023-05-20T08:15:33;15.40;;;14.18;;
52210;SDS011;38179;52.756;6.906;2023-05-20T08:18:00;14.73;;;13.38;;
52210;SDS011;38179;52.756;6.906;2023-05-20T08:20:27;15.68;;;14.25;;
52210;SDS011;38179;52.756;6.906;2023-05-20T08:22:53;15.00;;;13.48;;
52210;SDS011;38179;52.756;6.906;2023-05-20T08:25:19;14.75;;;13.32;;
52210;SDS011;38179;52.756;6.906;2023-05-20T08:27:47;14.68;;;13.40;;
52210;SDS011;38179;52.756;6.906;2023-05-20T08:30:16;15.18;;;13.73;;
52210;SDS011;38179;52.756;6.906;2023-05-20T08:32:42;14.68;;;13.50;;
52210;SDS011;38179;52.756;6.906;2023-05-20T08:35:08;15.40;;;14.07;;
52210;SDS011;38179;52.756;6.906;2023-05-20T08:37:37;14.65;;;13.32;;
52210;SDS011;38179;52.756;6.906;2023-05-20T08:40:03;24.15;;;14.20;;
52210;SDS011;38179;52.756;6.906;2023-05-20T08:42:29;17.80;;;14.13;;
52210;SDS011;38179;52.756;6.906;2023-05-20T08:44:55;14.68;;;13.48;;
52210;SDS011;38179;52.756;6.906;2023-05-20T08:47:27;14.75;;;13.60;;
52210;SDS011;38179;52.756;6.906;2023-05-20T08:49:53;14.73;;;13.52;;
52210;SDS011;38179;52.756;6.906;2023-05-20T08:52:20;15.10;;;13.90;;
52210;SDS011;38179;52.756;6.906;2023-05-20T08:54:47;15.18;;;13.68;;
52210;SDS011;38179;52.756;6.906;2023-05-20T08:57:13;15.65;;;14.32;;
52210;SDS011;38179;52.756;6.906;2023-05-20T08:59:44;15.27;;;13.95;;
52210;SDS011;38179;52.756;6.906;2023-05-20T09:02:11;15.20;;;13.90;;
52210;SDS011;38179;52.756;6.906;2023-05-20T09:04:40;15.27;;;13.73;;
52210;SDS011;38179;52.756;6.906;2023-05-20T09:07:06;15.02;;;13.73;;
52210;SDS011;38179;52.756;6.906;2023-05-20T09:09:32;15.73;;;14.13;;
52210;SDS011;38179;52.756;6.906;2023-05-20T09:12:00;15.65;;;14.20;;
52210;SDS011;38179;52.756;6.906;2023-05-20T09:14:30;15.90;;;14.40;;
52210;SDS011;38179;52.756;6.906;2023-05-20T09:16:59;15.23;;;13.93;;
52210;SDS011;38179;52.756;6.906;2023-05-20T09:19:25;15.10;;;13.60;;
52210;SDS011;38179;52.756;6.906;2023-05-20T09:21:53;15.63;;;13.95;;
52210;SDS011;38179;52.756;6.906;2023-05-20T09:24:21;15.57;;;13.98;;
52210;SDS011;38179;52.756;6.906;2023-05-20T09:26:49;15.57;;;13.95;;
52210;SDS011;38179;52.756;6.906;2023-05-20T09:29:16;15.55;;;14.20;;
52210;SDS011;38179;52.756;6.906;2023-05-20T09:31:43;15.02;;;13.80;;
52210;SDS011;38179;52.756;6.906;2023-05-20T09:34:10;15.23;;;13.80;;
52210;SDS011;38179;52.756;6.906;2023-05-20T09:36:36;15.98;;;14.45;;
52210;SDS011;38179;52.756;6.906;2023-05-20T09:39:04;15.35;;;14.05;;
52210;SDS011;38179;52.756;6.906;2023-05-20T09:41:33;15.60;;;14.15;;
52210;SDS011;38179;52.756;6.906;2023-05-20T09:44:16;15.23;;;13.93;;
52210;SDS011;38179;52.756;6.906;2023-05-20T09:46:44;14.88;;;13.48;;
52210;SDS011;38179;52.756;6.906;2023-05-20T09:49:10;15.32;;;13.82;;
52210;SDS011;38179;52.756;6.906;2023-05-20T09:51:38;16.03;;;14.67;;
52210;SDS011;38179;52.756;6.906;2023-05-20T09:54:06;15.52;;;14.07;;
52210;SDS011;38179;52.756;6.906;2023-05-20T09:56:33;14.63;;;13.43;;
52210;SDS011;38179;52.756;6.906;2023-05-20T09:59:00;15.57;;;14.38;;
52210;SDS011;38179;52.756;6.906;2023-05-20T10:01:29;16.25;;;14.60;;
52210;SDS011;38179;52.756;6.906;2023-05-20T10:03:55;15.57;;;14.25;;
52210;SDS011;38179;52.756;6.906;2023-05-20T10:19:30;15.05;;;13.85;;
52210;SDS011;38179;52.756;6.906;2023-05-20T10:22:00;15.57;;;14.32;;
52210;SDS011;38179;52.756;6.906;2023-05-20T10:24:35;15.63;;;14.32;;
52210;SDS011;38179;52.756;6.906;2023-05-20T10:27:03;14.73;;;13.45;;
52210;SDS011;38179;52.756;6.906;2023-05-20T10:29:41;15.75;;;14.48;;
52210;SDS011;38179;52.756;6.906;2023-05-20T10:32:11;15.37;;;14.17;;
52210;SDS011;38179;52.756;6.906;2023-05-20T10:34:48;14.88;;;13.57;;
52210;SDS011;38179;52.756;6.906;2023-05-20T10:37:28;15.30;;;14.00;;
52210;SDS011;38179;52.756;6.906;2023-05-20T10:42:33;16.55;;;14.70;;
52210;SDS011;38179;52.756;6.906;2023-05-20T10:44:59;15.20;;;13.77;;
52210;SDS011;38179;52.756;6.906;2023-05-20T10:47:24;15.20;;;13.75;;
52210;SDS011;38179;52.756;6.906;2023-05-20T10:49:50;22.48;;;13.88;;
52210;SDS011;38179;52.756;6.906;2023-05-20T10:52:16;15.52;;;14.18;;
52210;SDS011;38179;52.756;6.906;2023-05-20T10:54:45;14.57;;;13.38;;
52210;SDS011;38179;52.756;6.906;2023-05-20T10:57:12;15.32;;;13.98;;
52210;SDS011;38179;52.756;6.906;2023-05-20T10:59:39;15.60;;;14.13;;
52210;SDS011;38179;52.756;6.906;2023-05-20T11:02:05;15.38;;;13.93;;
52210;SDS011;38179;52.756;6.906;2023-05-20T11:04:35;15.35;;;14.15;;
52210;SDS011;38179;52.756;6.906;2023-05-20T11:07:02;15.52;;;14.23;;
52210;SDS011;38179;52.756;6.906;2023-05-20T11:09:28;15.98;;;14.50;;
52210;SDS011;38179;52.756;6.906;2023-05-20T11:11:55;15.35;;;14.05;;
52210;SDS011;38179;52.756;6.906;2023-05-20T11:14:22;15.05;;;13.65;;
52210;SDS011;38179;52.756;6.906;2023-05-20T11:16:51;18.77;;;14.48;;
52210;SDS011;38179;52.756;6.906;2023-05-20T11:19:18;15.68;;;14.25;;
52210;SDS011;38179;52.756;6.906;2023-05-20T11:21:44;16.25;;;14.63;;
52210;SDS011;38179;52.756;6.906;2023-05-20T11:24:11;15.88;;;14.35;;
52210;SDS011;38179;52.756;6.906;2023-05-20T11:26:38;15.60;;;14.15;;
52210;SDS011;38179;52.756;6.906;2023-05-20T11:29:04;15.32;;;14.13;;
52210;SDS011;38179;52.756;6.906;2023-05-20T11:31:30;17.92;;;14.57;;
52210;SDS011;38179;52.756;6.906;2023-05-20T11:33:59;15.60;;;14.23;;
52210;SDS011;38179;52.756;6.906;2023-05-20T11:36:26;15.35;;;13.88;;
52210;SDS011;38179;52.756;6.906;2023-05-20T11:38:53;15.63;;;14.10;;
52210;SDS011;38179;52.756;6.906;2023-05-20T11:41:25;16.02;;;14.75;;
52210;SDS011;38179;52.756;6.906;2023-05-20T11:43:59;16.17;;;14.88;;
52210;SDS011;38179;52.756;6.906;2023-05-20T11:46:26;16.10;;;14.57;;
52210;SDS011;38179;52.756;6.906;2023-05-20T11:48:56;16.23;;;14.80;;
52210;SDS011;38179;52.756;6.906;2023-05-20T11:51:28;15.88;;;14.38;;
52210;SDS011;38179;52.756;6.906;2023-05-20T11:54:03;15.85;;;14.60;;
52210;SDS011;38179;52.756;6.906;2023-05-20T11:56:34;15.35;;;14.05;;
52210;SDS011;38179;52.756;6.906;2023-05-20T11:59:01;15.30;;;14.00;;
52210;SDS011;38179;52.756;6.906;2023-05-20T12:01:29;16.10;;;14.80;;
52210;SDS011;38179;52.756;6.906;2023-05-20T12:03:58;16.13;;;14.90;;
52210;SDS011;38179;52.756;6.906;2023-05-20T12:06:24;16.27;;;14.77;;
52210;SDS011;38179;52.756;6.906;2023-05-20T12:08:50;16.38;;;15.02;;
52210;SDS011;38179;52.756;6.906;2023-05-20T12:11:16;16.08;;;14.50;;
52210;SDS011;38179;52.756;6.906;2023-05-20T12:13:42;15.85;;;14.55;;
52210;SDS011;38179;52.756;6.906;2023-05-20T12:16:07;16.15;;;14.77;;
52210;SDS011;38179;52.756;6.906;2023-05-20T12:18:33;16.15;;;14.75;;
52210;SDS011;38179;52.756;6.906;2023-05-20T12:20:59;15.75;;;14.55;;
52210;SDS011;38179;52.756;6.906;2023-05-20T12:23:25;15.90;;;14.68;;
52210;SDS011;38179;52.756;6.906;2023-05-20T12:25:53;15.63;;;14.40;;
52210;SDS011;38179;52.756;6.906;2023-05-20T12:28:19;16.42;;;14.70;;
52210;SDS011;38179;52.756;6.906;2023-05-20T12:30:45;15.75;;;14.27;;
52210;SDS011;38179;52.756;6.906;2023-05-20T12:33:11;16.33;;;15.02;;
52210;SDS011;38179;52.756;6.906;2023-05-20T12:35:38;16.73;;;15.30;;
52210;SDS011;38179;52.756;6.906;2023-05-20T12:38:05;16.60;;;15.10;;
52210;SDS011;38179;52.756;6.906;2023-05-20T12:40:32;16.67;;;15.40;;
52210;SDS011;38179;52.756;6.906;2023-05-20T12:43:02;16.35;;;15.15;;
52210;SDS011;38179;52.756;6.906;2023-05-20T12:45:29;16.77;;;15.48;;
52210;SDS011;38179;52.756;6.906;2023-05-20T12:47:55;16.75;;;15.13;;
52210;SDS011;38179;52.756;6.906;2023-05-20T12:50:22;17.13;;;15.70;;
52210;SDS011;38179;52.756;6.906;2023-05-20T12:52:49;16.33;;;14.93;;
52210;SDS011;38179;52.756;6.906;2023-05-20T12:55:15;16.25;;;14.95;;
52210;SDS011;38179;52.756;6.906;2023-05-20T12:57:42;16.35;;;14.85;;
52210;SDS011;38179;52.756;6.906;2023-05-20T13:00:08;16.23;;;14.93;;
52210;SDS011;38179;52.756;6.906;2023-05-20T13:02:35;16.48;;;15.23;;
52210;SDS011;38179;52.756;6.906;2023-05-20T13:05:02;16.83;;;15.43;;
52210;SDS011;38179;52.756;6.906;2023-05-20T13:07:28;16.65;;;15.15;;
52210;SDS011;38179;52.756;6.906;2023-05-20T13:09:56;17.63;;;15.43;;
52210;SDS011;38179;52.756;6.906;2023-05-20T13:12:21;16.52;;;15.13;;
52210;SDS011;38179;52.756;6.906;2023-05-20T13:14:47;16.25;;;14.77;;
52210;SDS011;38179;52.756;6.906;2023-05-20T13:17:13;16.70;;;14.93;;
52210;SDS011;38179;52.756;6.906;2023-05-20T13:19:39;16.58;;;15.18;;
52210;SDS011;38179;52.756;6.906;2023-05-20T13:22:05;17.48;;;15.98;;
52210;SDS011;38179;52.756;6.906;2023-05-20T13:24:32;17.23;;;15.75;;
52210;SDS011;38179;52.756;6.906;2023-05-20T13:26:58;17.35;;;15.73;;
52210;SDS011;38179;52.756;6.906;2023-05-20T13:29:28;16.67;;;15.43;;
52210;SDS011;38179;52.756;6.906;2023-05-20T13:31:54;16.67;;;15.27;;
52210;SDS011;38179;52.756;6.906;2023-05-20T13:34:20;16.65;;;15.32;;
52210;SDS011;38179;52.756;6.906;2023-05-20T13:36:46;17.17;;;15.73;;
52210;SDS011;38179;52.756;6.906;2023-05-20T13:39:13;16.65;;;15.20;;
52210;SDS011;38179;52.756;6.906;2023-05-20T13:41:40;17.05;;;15.55;;
52210;SDS011;38179;52.756;6.906;2023-05-20T13:44:05;16.27;;;15.07;;
52210;SDS011;38179;52.756;6.906;2023-05-20T13:46:31;16.38;;;14.98;;
52210;SDS011;38179;52.756;6.906;2023-05-20T13:48:57;16.13;;;14.77;;
52210;SDS011;38179;52.756;6.906;2023-05-20T13:51:23;17.13;;;15.73;;
52210;SDS011;38179;52.756;6.906;2023-05-20T13:53:49;16.75;;;15.25;;
52210;SDS011;38179;52.756;6.906;2023-05-20T13:56:15;19.35;;;14.57;;
52210;SDS011;38179;52.756;6.906;2023-05-20T13:58:41;16.90;;;15.50;;
52210;SDS011;38179;52.756;6.906;2023-05-20T14:01:07;16.92;;;15.48;;
52210;SDS011;38179;52.756;6.906;2023-05-20T14:03:36;17.00;;;15.68;;
52210;SDS011;38179;52.756;6.906;2023-05-20T14:06:04;17.83;;;16.40;;
52210;SDS011;38179;52.756;6.906;2023-05-20T14:08:30;16.38;;;14.98;;
52210;SDS011;38179;52.756;6.906;2023-05-20T14:10:56;16.30;;;14.90;;
52210;SDS011;38179;52.756;6.906;2023-05-20T14:13:23;17.13;;;15.38;;
52210;SDS011;38179;52.756;6.906;2023-05-20T14:15:50;16.65;;;15.35;;
52210;SDS011;38179;52.756;6.906;2023-05-20T14:18:17;16.45;;;15.13;;
52210;SDS011;38179;52.756;6.906;2023-05-20T14:20:43;17.35;;;15.88;;
52210;SDS011;38179;52.756;6.906;2023-05-20T14:23:09;16.27;;;14.98;;
52210;SDS011;38179;52.756;6.906;2023-05-20T14:25:36;16.63;;;15.10;;
52210;SDS011;38179;52.756;6.906;2023-05-20T14:28:02;16.88;;;15.45;;
52210;SDS011;38179;52.756;6.906;2023-05-20T14:30:28;15.93;;;14.73;;
52210;SDS011;38179;52.756;6.906;2023-05-20T14:32:54;16.42;;;14.93;;
52210;SDS011;38179;52.756;6.906;2023-05-20T14:35:20;16.52;;;15.00;;
52210;SDS011;38179;52.756;6.906;2023-05-20T14:37:46;16.83;;;15.43;;
52210;SDS011;38179;52.756;6.906;2023-05-20T14:40:11;16.25;;;15.05;;